Time;durP1;ratioP1;P1;durP2;ratioP2;P2;SDS_P1;SDS_P2;PMS_P1;PMS_P2;Temp;Humidity;BMP_temperature;BMP_pressure;BME280_temperature;BME280_humidity;BME280_pressure;Samples;Min_cycle;Max_cycle;Signal;HPM_P1;HPM_P2
2023/04/16 00:02:14;;;;;;;7.67;7.47;;;20.00;52.70;;;;;;5071667;28;20534;-59
2023/04/16 00:04:41;;;;;;;7.00;6.80;;;20.00;52.70;;;;;;5071505;28;20523;-58
2023/04/16 00:07:08;;;;;;;7.57;7.37;;;20.00;52.80;;;;;;5091565;28;20957;-60
2023/04/16 00:09:36;;;;;;;7.57;7.37;;;20.00;52.70;;;;;;5092300;28;20496;-59
2023/04/16 00:12:04;;;;;;;7.73;7.53;;;20.00;52.80;;;;;;5092043;28;20964;-59
2023/04/16 00:14:32;;;;;;;7.43;7.23;;;19.90;52.70;;;;;;5092192;28;20450;-60
2023/04/16 00:16:58;;;;;;;7.50;7.30;;;19.90;52.70;;;;;;5108913;28;20480;-59
2023/04/16 00:19:25;;;;;;;7.80;7.40;;;20.00;52.80;;;;;;5112690;28;20899;-60
2023/04/16 00:21:52;;;;;;;8.40;8.10;;;19.90;52.70;;;;;;5112238;28;20534;-58
2023/04/16 00:24:19;;;;;;;7.90;7.60;;;19.90;52.80;;;;;;5105787;28;20480;-60
2023/04/16 00:26:47;;;;;;;7.77;7.57;;;19.90;52.80;;;;;;5092015;28;20477;-59
2023/04/16 00:29:14;;;;;;;7.70;7.50;;;19.90;52.80;;;;;;5092083;28;20541;-60
2023/04/16 00:31:41;;;;;;;7.87;7.60;;;19.90;52.80;;;;;;5092176;28;20443;-58
2023/04/16 00:34:08;;;;;;;8.27;7.97;;;19.90;52.80;;;;;;5107870;28;20466;-59
2023/04/16 00:36:35;;;;;;;8.83;8.63;;;19.90;52.80;;;;;;5092156;28;20489;-58
2023/04/16 00:39:02;;;;;;;8.03;7.67;;;19.90;52.80;;;;;;5092137;28;20502;-59
2023/04/16 00:41:29;;;;;;;7.47;7.27;;;19.90;52.80;;;;;;5092406;28;20517;-59
2023/04/16 00:43:57;;;;;;;7.57;7.37;;;19.90;52.90;;;;;;5106454;28;20964;-59
2023/04/16 00:46:24;;;;;;;8.10;7.90;;;19.80;52.80;;;;;;5114362;28;20449;-58
2023/04/16 00:48:53;;;;;;;7.67;7.47;;;19.90;52.90;;;;;;5115730;28;20465;-60
2023/04/16 00:51:21;;;;;;;7.60;7.30;;;19.90;52.90;;;;;;5115625;28;20481;-60
2023/04/16 00:53:48;;;;;;;7.37;7.17;;;19.80;52.80;;;;;;5103435;28;20443;-61
2023/04/16 00:56:15;;;;;;;8.43;8.13;;;19.80;52.80;;;;;;5096058;28;20512;-57
2023/04/16 00:58:42;;;;;;;7.37;7.10;;;19.80;52.80;;;;;;5095630;28;20497;-60
2023/04/16 01:01:10;;;;;;;7.73;7.53;;;19.80;52.90;;;;;;5094913;28;21059;-59
2023/04/16 01:03:39;;;;;;;7.20;7.00;;;19.80;53.00;;;;;;5105252;28;20480;-58
2023/04/16 01:06:06;;;;;;;7.00;6.80;;;19.70;52.90;;;;;;5115762;28;20962;-59
2023/04/16 01:08:33;;;;;;;7.53;7.20;;;19.70;53.00;;;;;;5115822;28;20497;-60
2023/04/16 01:11:00;;;;;;;7.00;6.80;;;19.80;53.10;;;;;;5116345;28;20503;-59
2023/04/16 01:13:27;;;;;;;7.40;7.20;;;19.70;53.00;;;;;;5114486;28;20987;-60
2023/04/16 01:15:54;;;;;;;8.20;7.80;;;19.70;53.00;;;;;;5116024;28;20496;-59
2023/04/16 01:18:23;;;;;;;7.13;6.93;;;19.70;53.50;;;;;;5115660;28;20458;-59
2023/04/16 01:20:51;;;;;;;8.43;8.03;;;19.70;53.00;;;;;;5115764;28;20569;-59
2023/04/16 01:23:19;;;;;;;7.20;7.00;;;19.70;53.10;;;;;;5114509;28;20480;-59
2023/04/16 01:25:46;;;;;;;7.00;6.80;;;19.70;53.10;;;;;;5116849;28;20442;-57
2023/04/16 01:28:13;;;;;;;8.80;8.17;;;19.70;53.10;;;;;;5115979;28;20493;-59
2023/04/16 01:30:40;;;;;;;8.03;7.80;;;19.70;53.20;;;;;;5115980;28;20473;-60
2023/04/16 01:33:07;;;;;;;7.50;7.30;;;19.70;53.20;;;;;;5099591;28;20987;-60
2023/04/16 01:35:34;;;;;;;7.30;7.10;;;19.70;53.20;;;;;;5095565;28;20447;-58
2023/04/16 01:38:03;;;;;;;7.30;7.10;;;19.60;53.20;;;;;;5095335;28;20481;-60
2023/04/16 01:40:30;;;;;;;8.40;8.10;;;19.60;53.20;;;;;;5103231;28;20473;-60
2023/04/16 01:42:57;;;;;;;7.27;7.07;;;19.60;53.20;;;;;;5115708;28;20469;-59
2023/04/16 01:45:24;;;;;;;7.40;7.10;;;19.60;53.20;;;;;;5116233;28;20494;-58
2023/04/16 01:47:51;;;;;;;7.83;7.53;;;19.60;53.30;;;;;;5115489;28;20490;-61
2023/04/16 01:50:18;;;;;;;7.33;7.13;;;19.60;53.30;;;;;;5115221;28;20477;-60
2023/04/16 01:52:45;;;;;;;7.13;6.93;;;19.60;53.40;;;;;;5115525;28;20476;-59
2023/04/16 01:55:14;;;;;;;6.90;6.70;;;19.60;53.40;;;;;;5115735;28;20441;-58
2023/04/16 01:57:41;;;;;;;7.93;7.63;;;19.50;53.30;;;;;;5115078;28;20466;-60
2023/04/16 02:00:09;;;;;;;7.83;7.53;;;19.50;53.30;;;;;;5095629;28;20478;-59
2023/04/16 02:02:36;;;;;;;7.53;7.33;;;19.50;53.30;;;;;;5094103;28;20910;-58
2023/04/16 02:05:03;;;;;;;7.27;7.07;;;19.50;53.40;;;;;;5094266;28;20478;-59
2023/04/16 02:07:31;;;;;;;7.13;6.93;;;19.50;53.50;;;;;;5095047;28;20857;-60
2023/04/16 02:09:58;;;;;;;7.40;7.20;;;19.50;53.50;;;;;;5111897;28;20468;-59
2023/04/16 02:12:27;;;;;;;7.50;7.30;;;19.50;53.50;;;;;;5115859;28;20462;-59
2023/04/16 02:14:53;;;;;;;6.67;6.57;;;19.50;53.60;;;;;;5115123;28;20449;-61
2023/04/16 02:17:20;;;;;;;6.90;6.80;;;19.50;53.60;;;;;;5113986;28;20488;-61
2023/04/16 02:19:47;;;;;;;7.43;7.03;;;19.40;53.60;;;;;;5098813;28;20447;-60
2023/04/16 02:22:14;;;;;;;6.90;6.70;;;19.50;53.70;;;;;;5093717;28;20528;-60
2023/04/16 02:24:41;;;;;;;7.57;7.03;;;19.50;53.80;;;;;;5093737;28;20447;-60
2023/04/16 02:27:08;;;;;;;7.40;7.20;;;19.40;53.70;;;;;;5093903;28;20449;-58
2023/04/16 02:29:36;;;;;;;7.10;6.90;;;19.40;53.80;;;;;;5107000;28;20477;-60
2023/04/16 02:32:03;;;;;;;7.23;6.93;;;19.40;53.80;;;;;;5113669;28;20865;-56
2023/04/16 02:34:32;;;;;;;7.30;7.00;;;19.40;53.90;;;;;;5113288;28;20529;-60
2023/04/16 02:36:59;;;;;;;7.20;7.10;;;19.40;54.00;;;;;;5113302;28;21064;-59
2023/04/16 02:39:26;;;;;;;7.77;7.40;;;19.40;54.10;;;;;;5101730;28;20565;-58
2023/04/16 02:41:53;;;;;;;7.20;7.00;;;19.40;54.00;;;;;;5093692;28;20508;-60
2023/04/16 02:44:20;;;;;;;7.47;7.17;;;19.40;54.10;;;;;;5099084;28;20474;-58
2023/04/16 02:46:48;;;;;;;7.40;7.10;;;19.40;54.20;;;;;;5098844;28;20483;-59
2023/04/16 02:49:15;;;;;;;7.50;7.00;;;19.40;54.20;;;;;;5092488;28;20494;-60
2023/04/16 02:51:42;;;;;;;7.10;6.90;;;19.30;54.20;;;;;;5092624;28;20479;-60
2023/04/16 02:54:09;;;;;;;7.10;6.90;;;19.40;54.30;;;;;;5092918;28;20536;-59
2023/04/16 02:56:35;;;;;;;7.37;7.17;;;19.40;54.30;;;;;;5105567;28;20450;-59
2023/04/16 02:59:02;;;;;;;7.00;6.80;;;19.30;54.20;;;;;;5113171;28;20516;-60
2023/04/16 03:01:29;;;;;;;7.43;7.13;;;19.30;54.40;;;;;;5112741;28;20604;-59
2023/04/16 03:03:57;;;;;;;7.27;7.07;;;19.30;54.40;;;;;;5112522;28;20470;-60
2023/04/16 03:06:25;;;;;;;7.47;7.27;;;19.30;55.10;;;;;;5102110;28;20481;-60
2023/04/16 03:08:52;;;;;;;7.10;6.90;;;19.30;54.60;;;;;;5091398;28;20478;-60
2023/04/16 03:11:19;;;;;;;7.80;7.57;;;19.30;54.70;;;;;;5092523;28;20965;-60
2023/04/16 03:13:46;;;;;;;7.43;7.23;;;19.30;54.70;;;;;;5092621;28;20457;-58
2023/04/16 03:16:12;;;;;;;7.53;7.23;;;19.30;54.60;;;;;;5093451;28;20478;-59
2023/04/16 03:18:39;;;;;;;7.20;7.00;;;19.30;54.70;;;;;;5091968;28;20553;-60
2023/04/16 03:21:08;;;;;;;7.40;7.20;;;19.30;54.70;;;;;;5092235;28;20517;-57
2023/04/16 03:23:35;;;;;;;7.50;7.30;;;19.30;54.80;;;;;;5092349;28;20484;-59
2023/04/16 03:26:02;;;;;;;7.20;7.00;;;19.30;54.90;;;;;;5099032;28;20441;-60
2023/04/16 03:28:29;;;;;;;7.30;7.10;;;19.20;54.70;;;;;;5112636;28;20496;-59
2023/04/16 03:30:55;;;;;;;6.83;6.73;;;19.30;54.90;;;;;;5112390;28;20477;-57
2023/04/16 03:33:22;;;;;;;7.00;6.80;;;19.30;54.90;;;;;;5112493;28;20525;-59
2023/04/16 03:35:56;;;;;;;8.10;7.80;;;19.20;54.90;;;;;;5107622;28;20529;-59
2023/04/16 03:38:25;;;;;;;7.17;6.90;;;19.20;54.90;;;;;;5091859;28;20474;-59
2023/04/16 03:40:52;;;;;;;7.23;6.93;;;19.20;54.70;;;;;;5092084;28;20452;-58
2023/04/16 03:43:19;;;;;;;7.60;7.37;;;19.20;54.90;;;;;;5092363;28;20486;-60
2023/04/16 03:45:46;;;;;;;7.27;6.97;;;19.20;54.90;;;;;;5110035;28;20469;-60
2023/04/16 03:48:13;;;;;;;7.10;6.90;;;19.20;55.10;;;;;;5112184;28;20752;-59
2023/04/16 03:50:40;;;;;;;7.43;7.10;;;19.20;55.20;;;;;;5112143;28;20484;-59
2023/04/16 03:53:07;;;;;;;8.00;7.70;;;19.20;55.10;;;;;;5102265;28;20481;-61
2023/04/16 03:55:35;;;;;;;7.23;6.93;;;19.20;55.10;;;;;;5092228;28;20482;-60
2023/04/16 03:58:03;;;;;;;7.23;6.93;;;19.20;55.10;;;;;;5092308;28;20466;-57
2023/04/16 04:00:30;;;;;;;7.77;7.47;;;19.20;55.10;;;;;;5091867;28;20529;-59
2023/04/16 04:02:57;;;;;;;7.20;7.00;;;19.20;55.20;;;;;;5099663;28;20574;-56
2023/04/16 04:05:24;;;;;;;6.77;6.57;;;19.20;55.20;;;;;;5112517;28;20488;-59
2023/04/16 04:07:51;;;;;;;7.10;6.90;;;19.20;55.20;;;;;;5112002;28;20501;-61
2023/04/16 04:10:18;;;;;;;6.90;6.70;;;19.20;55.20;;;;;;5112452;28;20473;-60
2023/04/16 04:12:46;;;;;;;8.93;8.27;;;19.20;55.20;;;;;;5106390;28;20874;-61
2023/04/16 04:15:13;;;;;;;7.90;7.60;;;19.20;55.20;;;;;;5092164;28;20533;-59
2023/04/16 04:17:40;;;;;;;7.60;7.33;;;19.20;55.10;;;;;;5091635;28;20498;-59
2023/04/16 04:20:08;;;;;;;8.03;7.77;;;19.10;55.10;;;;;;5093028;28;20478;-60
2023/04/16 04:22:34;;;;;;;7.70;7.40;;;19.20;55.20;;;;;;5099472;28;20508;-57
2023/04/16 04:25:01;;;;;;;7.83;7.53;;;19.10;55.10;;;;;;5095961;28;20482;-58
2023/04/16 04:27:28;;;;;;;8.60;8.20;;;19.10;55.10;;;;;;5095831;28;20870;-59
2023/04/16 04:29:56;;;;;;;7.87;7.57;;;19.10;55.10;;;;;;5095403;28;20474;-57
2023/04/16 04:32:23;;;;;;;7.57;7.27;;;19.10;55.10;;;;;;5097552;28;20472;-60
2023/04/16 04:34:50;;;;;;;7.53;7.23;;;19.10;55.20;;;;;;5116009;28;20473;-60
2023/04/16 04:37:17;;;;;;;7.77;7.47;;;19.10;55.20;;;;;;5115724;28;20479;-57
2023/04/16 04:39:44;;;;;;;7.63;7.33;;;19.10;55.20;;;;;;5115826;28;20713;-59
2023/04/16 04:42:11;;;;;;;7.53;7.10;;;19.10;55.20;;;;;;5115024;28;20887;-61
2023/04/16 04:44:38;;;;;;;7.30;7.10;;;19.10;55.20;;;;;;5114828;28;20496;-59
2023/04/16 04:47:06;;;;;;;7.77;7.57;;;19.10;55.10;;;;;;5099021;28;20521;-58
2023/04/16 04:49:33;;;;;;;8.57;8.17;;;19.10;55.00;;;;;;5094843;28;20498;-59
2023/04/16 04:52:00;;;;;;;7.87;7.57;;;19.10;55.00;;;;;;5094786;28;20481;-56
2023/04/16 04:54:27;;;;;;;8.33;7.93;;;19.00;55.00;;;;;;5114318;28;20449;-60
2023/04/16 04:56:55;;;;;;;8.40;8.10;;;19.00;55.00;;;;;;5115239;28;20528;-61
2023/04/16 04:59:22;;;;;;;9.50;8.80;;;19.00;55.00;;;;;;5115135;28;21036;-60
2023/04/16 05:01:49;;;;;;;8.27;8.07;;;19.00;54.90;;;;;;5114695;28;20568;-60
2023/04/16 05:04:18;;;;;;;9.47;9.17;;;19.00;54.90;;;;;;5097706;28;20908;-60
2023/04/16 05:06:45;;;;;;;9.13;8.83;;;19.00;54.90;;;;;;5094334;28;20892;-60
2023/04/16 05:09:11;;;;;;;9.20;8.90;;;19.00;54.90;;;;;;5094585;28;20493;-58
2023/04/16 05:11:39;;;;;;;7.63;7.33;;;19.00;54.90;;;;;;5094593;28;20483;-57
2023/04/16 05:14:05;;;;;;;7.70;7.40;;;19.00;54.90;;;;;;5109881;28;20485;-59
2023/04/16 05:16:32;;;;;;;7.80;7.50;;;19.00;54.80;;;;;;5114873;28;20460;-60
2023/04/16 05:18:59;;;;;;;8.30;7.90;;;19.00;55.40;;;;;;5114654;28;20869;-59
2023/04/16 05:21:28;;;;;;;7.43;7.20;;;19.00;54.80;;;;;;5114495;28;20983;-57
2023/04/16 05:23:55;;;;;;;8.43;7.93;;;19.00;54.80;;;;;;5100541;28;20481;-59
2023/04/16 05:26:22;;;;;;;8.17;7.77;;;19.00;54.80;;;;;;5094452;28;20525;-59
2023/04/16 05:28:49;;;;;;;8.07;7.77;;;19.00;54.80;;;;;;5094102;28;20472;-60
2023/04/16 05:31:15;;;;;;;8.17;7.77;;;19.00;54.80;;;;;;5093464;28;20533;-60
2023/04/16 05:33:42;;;;;;;7.23;6.93;;;19.00;54.80;;;;;;5105890;28;20525;-58
2023/04/16 05:36:09;;;;;;;8.40;8.10;;;19.00;54.80;;;;;;5114745;28;20528;-56
2023/04/16 05:38:37;;;;;;;8.07;7.77;;;19.00;54.80;;;;;;5094959;28;20494;-60
2023/04/16 05:41:04;;;;;;;7.97;7.67;;;19.00;54.90;;;;;;5094645;28;20533;-60
2023/04/16 05:43:31;;;;;;;7.70;7.50;;;19.00;54.90;;;;;;5104343;28;20564;-59
2023/04/16 05:45:58;;;;;;;7.40;7.10;;;19.00;54.90;;;;;;5114988;28;20532;-58
2023/04/16 05:48:25;;;;;;;7.43;7.20;;;19.00;54.90;;;;;;5114960;28;20516;-59
2023/04/16 05:50:52;;;;;;;7.80;7.50;;;19.00;55.00;;;;;;5115447;28;20480;-57
2023/04/16 05:53:19;;;;;;;7.90;7.60;;;19.00;54.90;;;;;;5114776;28;20434;-60
2023/04/16 05:55:47;;;;;;;8.30;8.10;;;19.00;54.80;;;;;;5115270;28;20518;-60
2023/04/16 05:58:14;;;;;;;8.90;8.53;;;19.00;54.90;;;;;;5114880;28;20501;-59
2023/04/16 06:00:41;;;;;;;8.10;7.80;;;19.00;54.90;;;;;;5115857;28;20964;-59
2023/04/16 06:03:08;;;;;;;7.40;7.10;;;19.00;54.90;;;;;;5103686;28;20513;-60
2023/04/16 06:05:35;;;;;;;9.00;8.40;;;19.00;54.90;;;;;;5107007;28;20477;-58
2023/04/16 06:08:02;;;;;;;8.20;7.83;;;18.90;54.90;;;;;;5114510;28;20552;-60
2023/04/16 06:10:29;;;;;;;8.50;8.10;;;19.00;55.00;;;;;;5114992;28;20481;-60
2023/04/16 06:12:57;;;;;;;8.07;7.83;;;18.90;54.90;;;;;;5095835;28;20430;-59
2023/04/16 06:15:24;;;;;;;8.03;7.73;;;19.00;55.00;;;;;;5094114;28;20489;-58
2023/04/16 06:17:51;;;;;;;8.87;8.30;;;19.00;55.00;;;;;;5093970;28;20466;-58
2023/04/16 06:20:18;;;;;;;8.80;8.50;;;18.90;55.00;;;;;;5094280;28;20980;-59
2023/04/16 06:22:45;;;;;;;8.77;8.43;;;19.00;55.10;;;;;;5110621;28;20565;-58
2023/04/16 06:25:11;;;;;;;8.50;8.10;;;19.00;55.20;;;;;;5114333;28;20681;-60
2023/04/16 06:27:38;;;;;;;8.90;8.30;;;19.00;55.10;;;;;;5101845;28;21053;-59
2023/04/16 06:30:12;;;;;;;9.50;8.60;;;19.00;56.20;;;;;;5093976;28;20528;-60
2023/04/16 06:32:39;;;;;;;9.63;8.70;;;19.00;58.50;;;;;;5108859;28;20949;-58
2023/04/16 06:35:07;;;;;;;9.90;9.30;;;19.10;61.40;;;;;;5113736;28;20528;-58
2023/04/16 06:37:34;;;;;;;14.43;11.17;;;19.10;67.00;;;;;;5113220;28;20497;-59
2023/04/16 06:40:01;;;;;;;12.67;10.43;;;19.10;73.60;;;;;;5114562;28;20445;-60
2023/04/16 06:42:29;;;;;;;21.73;11.37;;;19.10;70.60;;;;;;5102284;28;20536;-59
2023/04/16 06:44:56;;;;;;;20.03;13.33;;;19.10;72.20;;;;;;5095626;28;20473;-58
2023/04/16 06:47:25;;;;;;;12.50;11.53;;;19.10;75.70;;;;;;5094947;28;20474;-58
2023/04/16 06:49:52;;;;;;;12.70;11.67;;;19.10;75.30;;;;;;5094206;28;20447;-59
2023/04/16 06:52:19;;;;;;;12.67;11.67;;;19.10;75.70;;;;;;5107318;28;20480;-60
2023/04/16 06:54:46;;;;;;;13.33;11.93;;;19.00;74.70;;;;;;5116472;28;20445;-58
2023/04/16 06:57:13;;;;;;;11.30;10.60;;;19.00;73.90;;;;;;5114873;28;20484;-58
2023/04/16 06:59:40;;;;;;;13.97;12.53;;;19.00;73.10;;;;;;5113885;28;20465;-60
2023/04/16 07:02:08;;;;;;;11.67;10.80;;;19.00;72.60;;;;;;5102851;28;20478;-59
2023/04/16 07:04:36;;;;;;;12.80;11.80;;;19.00;71.80;;;;;;5097708;28;20469;-60
2023/04/16 07:07:03;;;;;;;13.67;12.50;;;19.00;71.70;;;;;;5114090;28;20483;-59
2023/04/16 07:09:30;;;;;;;13.13;11.93;;;18.90;71.10;;;;;;5119628;28;20493;-60
2023/04/16 07:11:57;;;;;;;15.47;13.87;;;18.90;70.60;;;;;;5110809;28;20482;-60
2023/04/16 07:14:24;;;;;;;15.90;14.40;;;18.90;70.40;;;;;;5094508;28;20478;-60
2023/04/16 07:16:51;;;;;;;13.87;12.70;;;18.90;70.00;;;;;;5093282;28;20466;-59
2023/04/16 07:19:18;;;;;;;15.17;14.00;;;18.90;69.20;;;;;;5093058;28;20600;-58
2023/04/16 07:21:46;;;;;;;14.27;12.90;;;18.90;68.80;;;;;;5099572;28;20477;-59
2023/04/16 07:24:13;;;;;;;13.37;12.27;;;18.80;68.10;;;;;;5113640;28;20918;-60
2023/04/16 07:26:40;;;;;;;14.33;13.33;;;18.90;68.00;;;;;;5113686;28;20498;-60
2023/04/16 07:29:07;;;;;;;15.13;13.90;;;18.80;67.40;;;;;;5113592;28;20526;-57
2023/04/16 07:31:34;;;;;;;13.13;11.97;;;18.80;66.90;;;;;;5112715;28;20516;-59
2023/04/16 07:34:01;;;;;;;14.33;13.20;;;18.80;66.70;;;;;;5113781;28;20481;-59
2023/04/16 07:36:28;;;;;;;15.73;14.63;;;18.80;66.50;;;;;;5114687;28;20465;-59
2023/04/16 07:38:56;;;;;;;14.23;13.13;;;18.80;66.30;;;;;;5114094;28;20547;-58
2023/04/16 07:41:23;;;;;;;14.33;13.27;;;18.80;66.10;;;;;;5111474;28;20482;-60
2023/04/16 07:43:50;;;;;;;13.00;12.20;;;18.80;65.90;;;;;;5094366;28;20509;-60
2023/04/16 07:46:17;;;;;;;13.37;12.47;;;18.80;65.60;;;;;;5094350;28;20497;-60
2023/04/16 07:48:44;;;;;;;14.57;13.20;;;18.70;65.40;;;;;;5093549;28;20493;-60
2023/04/16 07:51:11;;;;;;;13.83;12.87;;;18.70;65.20;;;;;;5095214;28;20474;-59
2023/04/16 07:53:38;;;;;;;15.20;14.10;;;18.70;65.00;;;;;;5094192;28;20473;-60
2023/04/16 07:56:07;;;;;;;13.73;12.80;;;18.70;64.70;;;;;;5098398;28;20469;-59
2023/04/16 07:58:34;;;;;;;14.60;13.53;;;18.70;64.60;;;;;;5098557;28;20505;-57
2023/04/16 08:01:01;;;;;;;14.97;13.77;;;18.70;64.60;;;;;;5110137;28;20485;-59
2023/04/16 08:03:28;;;;;;;15.37;14.13;;;18.70;64.40;;;;;;5117893;28;20481;-59
2023/04/16 08:05:55;;;;;;;15.90;14.70;;;18.70;64.40;;;;;;5118456;28;20856;-59
2023/04/16 08:08:22;;;;;;;15.17;13.93;;;18.70;64.10;;;;;;5119400;28;20496;-59
2023/04/16 08:10:54;;;;;;;15.70;14.50;;;18.70;64.00;;;;;;5107967;28;20477;-60
2023/04/16 08:13:22;;;;;;;14.83;13.70;;;18.60;63.80;;;;;;5099712;28;20446;-57
2023/04/16 08:15:49;;;;;;;16.03;14.87;;;18.60;63.70;;;;;;5098101;28;20814;-59
2023/04/16 08:18:16;;;;;;;16.80;15.50;;;18.60;63.70;;;;;;5097226;28;20501;-60
2023/04/16 08:20:43;;;;;;;17.23;15.53;;;18.70;63.70;;;;;;5106945;28;20960;-59
2023/04/16 08:23:10;;;;;;;17.20;15.53;;;18.60;63.60;;;;;;5118343;28;20512;-59
2023/04/16 08:25:37;;;;;;;16.20;15.10;;;18.60;63.80;;;;;;5118534;28;20469;-59
2023/04/16 08:28:04;;;;;;;18.17;15.63;;;18.60;63.60;;;;;;5117784;28;20530;-59
2023/04/16 08:30:32;;;;;;;18.20;16.50;;;18.60;63.50;;;;;;5109491;28;20856;-59
2023/04/16 08:32:59;;;;;;;17.77;16.37;;;18.60;63.60;;;;;;5097266;28;20482;-58
2023/04/16 08:35:26;;;;;;;17.47;16.07;;;18.60;63.30;;;;;;5096912;28;20878;-58
2023/04/16 08:37:53;;;;;;;17.37;15.70;;;18.60;63.10;;;;;;5096208;28;21030;-58
2023/04/16 08:40:20;;;;;;;16.37;14.83;;;18.60;62.70;;;;;;5097293;28;20876;-60
2023/04/16 08:42:54;;;;;;;16.17;14.77;;;18.60;62.60;;;;;;5097069;28;20893;-59
2023/04/16 08:45:21;;;;;;;16.50;14.90;;;18.60;62.40;;;;;;5096734;28;20442;-58
2023/04/16 08:47:51;;;;;;;15.60;14.30;;;18.70;62.30;;;;;;5101828;28;20498;-60
2023/04/16 08:50:23;;;;;;;15.57;14.37;;;18.70;62.00;;;;;;5107193;28;20473;-60
2023/04/16 08:52:52;;;;;;;15.57;14.13;;;18.70;61.90;;;;;;5119783;28;20448;-61
2023/04/16 08:55:23;;;;;;;14.10;13.10;;;18.70;61.80;;;;;;5119007;28;20877;-58
2023/04/16 08:57:53;;;;;;;15.30;14.20;;;18.60;61.50;;;;;;5118472;28;20469;-60
2023/04/16 09:00:21;;;;;;;15.10;14.10;;;18.70;61.50;;;;;;5112890;28;20478;-60
2023/04/16 09:02:50;;;;;;;15.03;14.07;;;18.70;61.60;;;;;;5097770;28;20442;-60
2023/04/16 09:05:19;;;;;;;13.97;13.07;;;18.70;61.60;;;;;;5097966;28;20447;-59
2023/04/16 09:07:47;;;;;;;15.30;13.80;;;18.70;61.40;;;;;;5097275;28;20494;-61
2023/04/16 09:10:15;;;;;;;13.07;12.37;;;18.70;61.30;;;;;;5099714;28;20469;-61
2023/04/16 09:12:43;;;;;;;14.80;13.90;;;18.70;61.00;;;;;;5110396;28;20513;-61
2023/04/16 09:15:11;;;;;;;13.40;12.70;;;18.70;60.90;;;;;;5117956;28;20491;-60
2023/04/16 09:17:39;;;;;;;13.17;12.47;;;18.70;60.90;;;;;;5117785;28;20902;-60
2023/04/16 09:20:09;;;;;;;14.70;13.60;;;18.70;60.80;;;;;;5113930;28;20477;-58
2023/04/16 09:22:37;;;;;;;12.90;12.13;;;18.70;60.70;;;;;;5114630;28;20445;-58
2023/04/16 09:25:05;;;;;;;13.80;12.90;;;18.70;60.60;;;;;;5115915;28;20959;-58
2023/04/16 09:27:32;;;;;;;14.13;13.43;;;18.70;60.60;;;;;;5115612;28;20518;-58
2023/04/16 09:29:59;;;;;;;14.20;13.40;;;18.70;60.50;;;;;;5115813;28;20480;-59
2023/04/16 09:32:27;;;;;;;13.23;12.43;;;18.70;60.60;;;;;;5114808;28;20473;-59
2023/04/16 09:34:56;;;;;;;15.70;14.60;;;18.70;60.60;;;;;;5115254;28;20473;-58
2023/04/16 09:37:25;;;;;;;13.13;12.37;;;18.70;60.50;;;;;;5115240;28;20859;-58
2023/04/16 09:39:57;;;;;;;13.47;12.47;;;18.70;60.50;;;;;;5115773;28;20466;-59
2023/04/16 09:42:26;;;;;;;13.40;12.60;;;18.70;60.50;;;;;;5115442;28;20469;-59
2023/04/16 09:44:53;;;;;;;13.53;12.90;;;18.70;60.30;;;;;;5107361;28;20478;-59
2023/04/16 09:47:21;;;;;;;13.83;12.93;;;18.70;60.30;;;;;;5095022;28;20487;-58
2023/04/16 09:49:48;;;;;;;12.73;11.77;;;18.70;60.20;;;;;;5094609;28;20473;-57
2023/04/16 09:52:16;;;;;;;15.27;14.20;;;18.70;60.20;;;;;;5094975;28;20485;-58
2023/04/16 09:54:49;;;;;;;13.17;12.47;;;18.70;60.20;;;;;;5115534;28;20477;-59
2023/04/16 09:57:20;;;;;;;13.00;12.00;;;18.70;60.00;;;;;;5115833;28;20453;-59
2023/04/16 09:59:47;;;;;;;13.10;12.30;;;18.70;60.00;;;;;;5115022;28;20445;-57
2023/04/16 10:02:14;;;;;;;12.83;12.03;;;18.70;60.00;;;;;;5114321;28;20880;-62
2023/04/16 10:04:51;;;;;;;12.90;12.10;;;18.70;59.80;;;;;;5106537;28;20466;-58
2023/04/16 10:07:19;;;;;;;13.10;12.30;;;18.70;59.90;;;;;;5094596;28;20495;-58
2023/04/16 10:09:48;;;;;;;12.63;11.83;;;18.70;59.80;;;;;;5094450;28;20511;-59
2023/04/16 10:12:16;;;;;;;13.30;12.20;;;18.70;59.70;;;;;;5093801;28;20470;-55
2023/04/16 10:14:43;;;;;;;13.20;12.30;;;18.70;60.00;;;;;;5108529;28;20531;-54
2023/04/16 10:17:10;;;;;;;13.57;12.47;;;18.70;60.30;;;;;;5113025;28;20521;-55
2023/04/16 10:19:37;;;;;;;12.00;11.40;;;18.70;60.50;;;;;;5113085;28;20473;-58
2023/04/16 10:22:05;;;;;;;12.27;11.53;;;18.70;60.30;;;;;;5112839;28;20448;-55
2023/04/16 10:24:33;;;;;;;12.63;11.83;;;18.70;60.10;;;;;;5113297;28;20519;-53
2023/04/16 10:27:02;;;;;;;13.00;12.30;;;18.70;60.00;;;;;;5112943;28;20471;-58
2023/04/16 10:29:31;;;;;;;11.70;11.00;;;18.70;59.90;;;;;;5113075;28;20461;-59
2023/04/16 10:31:59;;;;;;;12.47;11.77;;;18.70;59.80;;;;;;5113168;28;20471;-55
2023/04/16 10:34:27;;;;;;;12.37;11.77;;;18.70;59.70;;;;;;5112983;28;20444;-55
2023/04/16 10:36:55;;;;;;;12.07;11.57;;;18.70;59.60;;;;;;5112790;28;20511;-56
2023/04/16 10:39:23;;;;;;;11.73;11.13;;;18.70;59.50;;;;;;5112663;28;20509;-57
2023/04/16 10:41:50;;;;;;;12.10;11.50;;;18.70;59.40;;;;;;5112873;28;20528;-58
2023/04/16 10:44:19;;;;;;;11.80;11.20;;;18.70;59.30;;;;;;5112619;28;20568;-57
2023/04/16 10:46:49;;;;;;;11.80;11.17;;;18.70;59.20;;;;;;5112651;28;20437;-58
2023/04/16 10:49:17;;;;;;;13.07;12.30;;;18.70;59.10;;;;;;5112557;28;20497;-56
2023/04/16 10:51:54;;;;;;;12.80;11.90;;;18.70;59.00;;;;;;5112520;28;20445;-56
2023/04/16 10:54:24;;;;;;;12.00;11.30;;;18.70;58.90;;;;;;5112696;28;20473;-59
2023/04/16 10:56:52;;;;;;;11.50;10.90;;;18.70;58.80;;;;;;5112368;28;20935;-58
2023/04/16 10:59:22;;;;;;;12.40;11.70;;;18.70;58.80;;;;;;5112399;28;20493;-55
2023/04/16 11:01:51;;;;;;;12.13;11.53;;;18.70;58.70;;;;;;5112554;28;20513;-56
2023/04/16 11:04:28;;;;;;;13.20;12.07;;;18.70;58.60;;;;;;5112360;28;20577;-57
2023/04/16 11:07:07;;;;;;;11.30;10.80;;;18.70;58.50;;;;;;5112065;28;20446;-55
2023/04/16 11:09:50;;;;;;;11.60;10.90;;;18.70;58.50;;;;;;5112292;28;20500;-57
2023/04/16 11:12:18;;;;;;;11.43;10.83;;;18.70;58.40;;;;;;5112281;28;20921;-57
2023/04/16 11:14:48;;;;;;;10.67;10.10;;;18.70;58.30;;;;;;5112310;28;20524;-57
2023/04/16 11:17:16;;;;;;;11.70;11.10;;;18.70;58.30;;;;;;5112174;28;20491;-57
2023/04/16 11:19:44;;;;;;;12.00;11.40;;;18.70;58.30;;;;;;5112373;28;20528;-58
2023/04/16 11:22:13;;;;;;;12.00;11.40;;;18.70;58.20;;;;;;5112171;28;20480;-59
2023/04/16 11:24:41;;;;;;;12.07;11.47;;;18.70;58.20;;;;;;5112152;28;20489;-59
2023/04/16 11:27:08;;;;;;;12.47;11.87;;;18.70;58.10;;;;;;5112029;28;20452;-58
2023/04/16 11:29:35;;;;;;;11.87;11.17;;;18.70;58.10;;;;;;5111122;28;20997;-57
2023/04/16 11:32:03;;;;;;;11.70;11.10;;;18.70;58.00;;;;;;5112174;28;20959;-58
2023/04/16 11:34:30;;;;;;;13.40;12.70;;;18.70;57.90;;;;;;5112122;28;20476;-58
2023/04/16 11:36:57;;;;;;;12.03;11.40;;;18.70;57.90;;;;;;5111797;28;20877;-58
2023/04/16 11:39:24;;;;;;;11.80;11.23;;;18.70;57.90;;;;;;5112522;28;20528;-56
2023/04/16 11:41:52;;;;;;;12.63;11.93;;;18.70;57.80;;;;;;5112265;28;20438;-58
2023/04/16 11:44:24;;;;;;;12.77;12.07;;;18.70;57.80;;;;;;5112055;28;20512;-59
2023/04/16 11:46:52;;;;;;;11.53;10.90;;;18.70;57.70;;;;;;5112018;28;20874;-60
2023/04/16 11:49:27;;;;;;;11.30;10.80;;;18.70;57.70;;;;;;5112157;28;20497;-57
2023/04/16 11:51:55;;;;;;;10.53;10.00;;;18.70;57.60;;;;;;5112014;28;20448;-56
2023/04/16 11:54:22;;;;;;;10.83;10.33;;;18.70;57.60;;;;;;5112200;28;20441;-58
2023/04/16 11:56:51;;;;;;;11.47;10.90;;;18.70;57.50;;;;;;5112194;28;20502;-59
2023/04/16 11:59:20;;;;;;;11.20;10.70;;;18.70;57.50;;;;;;5112158;28;20543;-56
2023/04/16 12:01:48;;;;;;;12.03;11.20;;;18.80;57.50;;;;;;5112019;28;20454;-57
2023/04/16 12:04:16;;;;;;;11.23;10.63;;;18.70;57.40;;;;;;5112097;28;21058;-57
2023/04/16 12:07:09;;;;;;;11.70;10.90;;;18.70;57.40;;;;;;5112330;28;21022;-61
2023/04/16 12:09:36;;;;;;;10.70;10.20;;;18.80;57.40;;;;;;5112196;28;20964;-58
2023/04/16 12:12:04;;;;;;;11.30;10.80;;;18.80;57.40;;;;;;5112131;28;20445;-59
2023/04/16 12:14:32;;;;;;;11.43;10.83;;;18.80;57.30;;;;;;5112014;28;20477;-59
2023/04/16 12:17:17;;;;;;;11.47;10.87;;;18.80;57.30;;;;;;5111632;28;21001;-55
2023/04/16 12:19:51;;;;;;;11.90;11.30;;;18.70;57.20;;;;;;5111688;28;20442;-56
2023/04/16 12:22:27;;;;;;;10.90;10.40;;;18.80;57.20;;;;;;5111652;28;20823;-61
2023/04/16 12:24:58;;;;;;;11.80;11.10;;;18.80;57.10;;;;;;5111773;28;20477;-59
2023/04/16 12:27:27;;;;;;;10.57;10.07;;;18.80;57.20;;;;;;5111644;28;20483;-61
2023/04/16 12:30:04;;;;;;;10.70;10.20;;;18.80;57.10;;;;;;5111742;28;20623;-58
2023/04/16 12:32:31;;;;;;;10.60;10.13;;;18.80;57.10;;;;;;5111815;28;20450;-60
2023/04/16 12:34:57;;;;;;;11.33;10.73;;;18.80;57.10;;;;;;5111847;28;20480;-62
2023/04/16 12:37:26;;;;;;;10.43;9.93;;;18.80;57.60;;;;;;5111362;28;20473;-61
2023/04/16 12:39:53;;;;;;;11.13;10.60;;;18.80;57.10;;;;;;5111717;28;20498;-58
2023/04/16 12:42:20;;;;;;;11.00;10.50;;;18.80;57.00;;;;;;5114759;28;20446;-60